Time;durP1;ratioP1;P1;durP2;ratioP2;P2;SDS_P1;SDS_P2;PMS_P1;PMS_P2;Temp;Humidity;BMP_temperature;BMP_pressure;BME280_temperature;BME280_humidity;BME280_pressure;Samples;Min_cycle;Max_cycle;Signal;HPM_P1;HPM_P2
2024/01/25 00:01:12;;;;;;;7.88;3.72;;;15.80;56.90;;;;;;5054549;28;20218;-75
2024/01/25 00:03:37;;;;;;;7.07;2.95;;;15.80;56.90;;;;;;5054557;28;20167;-74
2024/01/25 00:06:04;;;;;;;8.38;3.72;;;15.80;56.90;;;;;;5054084;28;20171;-74
2024/01/25 00:08:30;;;;;;;11.38;3.80;;;15.80;56.90;;;;;;5054452;28;20222;-74
2024/01/25 00:10:55;;;;;;;8.57;3.65;;;15.80;56.90;;;;;;5054726;28;20171;-74
2024/01/25 00:13:21;;;;;;;7.00;2.85;;;15.80;56.90;;;;;;5053464;28;20549;-76
2024/01/25 00:15:46;;;;;;;5.63;2.88;;;15.80;56.90;;;;;;5054505;28;20677;-74
2024/01/25 00:18:12;;;;;;;8.35;3.35;;;15.80;56.90;;;;;;5054734;28;20167;-74
2024/01/25 00:20:37;;;;;;;8.80;3.38;;;15.80;56.90;;;;;;5053544;28;20650;-75
2024/01/25 00:23:03;;;;;;;8.45;3.35;;;15.70;56.90;;;;;;5054574;28;20664;-73
2024/01/25 00:25:29;;;;;;;9.25;3.38;;;15.70;56.90;;;;;;5053229;28;20274;-73
2024/01/25 00:27:54;;;;;;;9.40;3.92;;;15.70;56.80;;;;;;5054221;28;20191;-74
2024/01/25 00:30:20;;;;;;;7.40;3.78;;;15.70;56.90;;;;;;5053881;28;20220;-73
2024/01/25 00:32:45;;;;;;;8.43;3.28;;;15.70;56.80;;;;;;5053378;28;20220;-75
2024/01/25 00:35:13;;;;;;;7.85;3.80;;;15.70;56.80;;;;;;5054033;28;20167;-75
2024/01/25 00:37:40;;;;;;;6.43;3.10;;;15.70;56.80;;;;;;5053899;28;20182;-74
2024/01/25 00:40:06;;;;;;;6.97;3.75;;;15.70;56.80;;;;;;5053301;28;20258;-74
2024/01/25 00:42:32;;;;;;;7.07;3.25;;;15.70;56.80;;;;;;5053523;28;20739;-75
2024/01/25 00:44:57;;;;;;;7.43;2.97;;;15.70;56.80;;;;;;5036066;28;20183;-75
2024/01/25 00:47:23;;;;;;;5.47;2.63;;;15.70;56.80;;;;;;5052986;28;20171;-75
2024/01/25 00:49:49;;;;;;;6.40;2.97;;;15.70;56.80;;;;;;5053921;28;20599;-74
2024/01/25 00:52:15;;;;;;;7.20;3.60;;;15.70;56.80;;;;;;5053807;28;20185;-74
2024/01/25 00:54:41;;;;;;;6.38;3.15;;;15.70;56.80;;;;;;5052777;28;20277;-74
2024/01/25 00:57:10;;;;;;;6.05;2.80;;;15.70;56.80;;;;;;5053697;28;20175;-73
2024/01/25 00:59:35;;;;;;;7.43;2.78;;;15.60;56.80;;;;;;5053198;28;20649;-73
2024/01/25 01:02:01;;;;;;;8.90;3.85;;;15.60;56.80;;;;;;5053029;28;20210;-75
2024/01/25 01:04:27;;;;;;;6.68;2.78;;;15.60;56.70;;;;;;5053336;28;20725;-74
2024/01/25 01:06:52;;;;;;;8.95;3.05;;;15.60;56.70;;;;;;5053603;28;20653;-75
2024/01/25 01:09:18;;;;;;;6.55;3.53;;;15.60;56.70;;;;;;5051362;28;20182;-74
2024/01/25 01:11:43;;;;;;;9.00;3.45;;;15.60;56.70;;;;;;5053448;28;20717;-74
2024/01/25 01:14:09;;;;;;;8.00;3.03;;;15.60;56.70;;;;;;5053262;28;20171;-74
2024/01/25 01:16:35;;;;;;;6.63;2.75;;;15.60;56.70;;;;;;5052580;28;20183;-73
2024/01/25 01:19:05;;;;;;;7.47;3.38;;;15.60;56.70;;;;;;5053473;28;20175;-75
2024/01/25 01:21:32;;;;;;;7.15;2.78;;;15.60;56.70;;;;;;5052929;28;20215;-74
2024/01/25 01:23:57;;;;;;;6.32;3.03;;;15.60;56.70;;;;;;5052704;28;20581;-74
2024/01/25 01:26:23;;;;;;;6.93;2.50;;;15.60;56.70;;;;;;5052227;28;20179;-73
2024/01/25 01:28:48;;;;;;;6.32;3.13;;;15.60;56.70;;;;;;5052310;28;20163;-74
2024/01/25 01:31:14;;;;;;;7.70;3.30;;;15.60;56.60;;;;;;5053250;28;20232;-74
2024/01/25 01:33:39;;;;;;;7.93;3.33;;;15.50;56.60;;;;;;5052674;28;20171;-73
2024/01/25 01:36:05;;;;;;;7.18;3.13;;;15.60;56.60;;;;;;5052192;28;20270;-74
2024/01/25 01:38:30;;;;;;;6.38;3.17;;;15.50;56.60;;;;;;5052756;28;20309;-75
2024/01/25 01:40:56;;;;;;;7.13;2.88;;;15.50;56.60;;;;;;5052923;28;20203;-74
2024/01/25 01:43:23;;;;;;;8.43;3.47;;;15.60;56.60;;;;;;5051822;28;20296;-75
2024/01/25 01:45:49;;;;;;;10.13;3.65;;;15.50;56.60;;;;;;5052866;28;20187;-74
2024/01/25 01:48:15;;;;;;;7.47;3.17;;;15.50;56.60;;;;;;5052977;28;20178;-75
2024/01/25 01:50:40;;;;;;;6.45;2.88;;;15.50;56.60;;;;;;5050636;28;20175;-74
2024/01/25 01:53:06;;;;;;;9.10;2.90;;;15.50;56.60;;;;;;5052607;28;20183;-74
2024/01/25 01:55:32;;;;;;;6.93;2.58;;;15.50;56.60;;;;;;5052313;28;20186;-74
2024/01/25 01:57:57;;;;;;;7.18;3.50;;;15.50;56.60;;;;;;5051767;28;20186;-73
2024/01/25 02:00:23;;;;;;;6.32;2.38;;;15.50;56.60;;;;;;5050875;28;20183;-73
2024/01/25 02:02:48;;;;;;;6.28;3.13;;;15.50;56.60;;;;;;5034824;28;20207;-73
2024/01/25 02:05:14;;;;;;;5.60;3.25;;;15.50;56.60;;;;;;5051683;28;20178;-73
2024/01/25 02:07:40;;;;;;;5.20;2.42;;;15.50;56.60;;;;;;5052147;28;20183;-73
2024/01/25 02:10:07;;;;;;;6.50;2.70;;;15.50;56.60;;;;;;5052337;28;20198;-74
2024/01/25 02:12:32;;;;;;;7.28;2.85;;;15.50;56.60;;;;;;5051304;28;20586;-74
2024/01/25 02:14:58;;;;;;;6.30;2.85;;;15.40;56.50;;;;;;5052458;28;20694;-73
2024/01/25 02:17:23;;;;;;;6.80;2.90;;;15.40;56.50;;;;;;5051856;28;20547;-74
2024/01/25 02:19:49;;;;;;;6.93;3.42;;;15.40;56.50;;;;;;5051490;28;20633;-73
2024/01/25 02:22:19;;;;;;;6.75;3.00;;;15.40;56.50;;;;;;5052029;28;20236;-74
2024/01/25 02:24:45;;;;;;;7.28;3.75;;;15.40;56.50;;;;;;5052105;28;20178;-73
2024/01/25 02:27:10;;;;;;;7.05;2.55;;;15.40;56.50;;;;;;5051343;28;20250;-72
2024/01/25 02:29:36;;;;;;;6.28;2.80;;;15.40;56.50;;;;;;5051953;28;20245;-73
2024/01/25 02:32:02;;;;;;;8.60;3.05;;;15.40;56.50;;;;;;5051585;28;20187;-74
2024/01/25 02:34:28;;;;;;;7.97;3.30;;;15.40;56.50;;;;;;5051818;28;20179;-73
2024/01/25 02:36:53;;;;;;;6.50;3.10;;;15.40;56.50;;;;;;5051528;28;20278;-74
2024/01/25 02:39:19;;;;;;;6.53;2.58;;;15.40;56.50;;;;;;5050522;28;20286;-73
2024/01/25 02:41:44;;;;;;;6.70;2.95;;;15.40;56.50;;;;;;5050563;28;20221;-74
2024/01/25 02:44:10;;;;;;;4.97;2.85;;;15.40;56.50;;;;;;5052039;28;20266;-74
2024/01/25 02:46:36;;;;;;;5.97;2.40;;;15.30;56.50;;;;;;5050687;28;20619;-74
2024/01/25 02:49:01;;;;;;;7.40;3.20;;;15.40;56.40;;;;;;5051946;28;20288;-74
2024/01/25 02:51:27;;;;;;;6.05;3.03;;;15.40;56.40;;;;;;5051607;28;20665;-73
2024/01/25 02:53:52;;;;;;;4.40;2.40;;;15.30;56.40;;;;;;5050872;28;20697;-73
2024/01/25 02:56:18;;;;;;;6.10;2.80;;;15.40;56.40;;;;;;5051455;28;20642;-73
2024/01/25 02:58:43;;;;;;;8.45;3.28;;;15.30;56.40;;;;;;5052015;28;20174;-73
2024/01/25 03:01:09;;;;;;;5.25;2.60;;;15.30;56.40;;;;;;5051226;28;20607;-73
2024/01/25 03:03:34;;;;;;;6.15;2.97;;;15.30;56.40;;;;;;5051553;28;20190;-73
2024/01/25 03:06:00;;;;;;;7.35;2.55;;;15.30;56.40;;;;;;5051863;28;20179;-74
2024/01/25 03:08:25;;;;;;;6.07;2.90;;;15.30;56.40;;;;;;5050797;28;20182;-73
2024/01/25 03:10:51;;;;;;;6.10;3.00;;;15.30;56.40;;;;;;5051671;28;20171;-74
2024/01/25 03:13:16;;;;;;;6.40;2.78;;;15.30;56.40;;;;;;5051612;28;20186;-74
2024/01/25 03:15:43;;;;;;;4.43;2.40;;;15.30;56.40;;;;;;5051137;28;20258;-73
2024/01/25 03:18:09;;;;;;;7.30;2.45;;;15.30;56.40;;;;;;5051863;28;20180;-74
2024/01/25 03:20:35;;;;;;;5.13;2.58;;;15.30;56.40;;;;;;5051323;28;21128;-73
2024/01/25 03:23:00;;;;;;;4.35;2.55;;;15.30;56.40;;;;;;5050996;28;20179;-73
2024/01/25 03:25:26;;;;;;;6.60;2.72;;;15.30;56.40;;;;;;5051235;28;20514;-73
2024/01/25 03:27:51;;;;;;;6.22;2.47;;;15.30;56.40;;;;;;5051729;28;20175;-72
2024/01/25 03:30:17;;;;;;;5.93;3.00;;;15.20;56.30;;;;;;5050673;28;20270;-73
2024/01/25 03:32:42;;;;;;;6.53;2.55;;;15.20;56.30;;;;;;5051472;28;20254;-73
2024/01/25 03:35:08;;;;;;;5.45;2.72;;;15.20;56.30;;;;;;5051556;28;20175;-75
2024/01/25 03:37:33;;;;;;;8.40;3.42;;;15.20;56.30;;;;;;5050475;28;20172;-73
2024/01/25 03:39:59;;;;;;;5.28;2.50;;;15.20;56.90;;;;;;5051396;28;20584;-73
2024/01/25 03:42:24;;;;;;;5.60;2.50;;;15.20;56.30;;;;;;5050652;28;20639;-74
2024/01/25 03:44:50;;;;;;;4.20;2.40;;;15.20;56.30;;;;;;5051620;28;20634;-74
2024/01/25 03:47:15;;;;;;;6.15;2.50;;;15.20;56.30;;;;;;5051280;28;20171;-75
2024/01/25 03:49:41;;;;;;;6.68;2.33;;;15.20;56.30;;;;;;5052699;28;20163;-74
2024/01/25 03:52:07;;;;;;;5.65;2.92;;;15.20;56.30;;;;;;5054948;28;20262;-74
2024/01/25 03:54:32;;;;;;;4.20;2.30;;;15.20;56.30;;;;;;5054381;28;20326;-74
2024/01/25 03:56:58;;;;;;;6.60;2.85;;;15.20;56.30;;;;;;5054117;28;20175;-73
2024/01/25 03:59:23;;;;;;;6.20;2.85;;;15.20;56.30;;;;;;5054568;28;20217;-74
2024/01/25 04:01:49;;;;;;;7.00;2.88;;;15.20;56.30;;;;;;5054577;28;20267;-72
2024/01/25 04:04:17;;;;;;;8.05;2.88;;;15.20;56.30;;;;;;5054041;28;20213;-74
2024/01/25 04:06:43;;;;;;;4.93;2.70;;;15.20;56.30;;;;;;5054672;28;20194;-73
2024/01/25 04:09:12;;;;;;;4.82;2.92;;;15.20;56.30;;;;;;5054500;28;20175;-74
2024/01/25 04:11:37;;;;;;;7.28;2.97;;;15.20;56.30;;;;;;5053691;28;20175;-74
2024/01/25 04:14:04;;;;;;;7.15;2.83;;;15.20;56.30;;;;;;5054730;28;20654;-73
2024/01/25 04:16:29;;;;;;;6.93;2.65;;;15.10;56.20;;;;;;5054117;28;20642;-72
2024/01/25 04:18:55;;;;;;;4.60;2.25;;;15.10;56.30;;;;;;5053686;28;20187;-72
2024/01/25 04:21:20;;;;;;;4.85;2.85;;;15.10;56.20;;;;;;5053986;28;20215;-73
2024/01/25 04:23:46;;;;;;;6.88;2.50;;;15.10;56.20;;;;;;5054300;28;20167;-73
2024/01/25 04:26:11;;;;;;;6.03;2.67;;;15.10;56.20;;;;;;5053533;28;20229;-72
2024/01/25 04:28:37;;;;;;;5.78;3.05;;;15.10;56.20;;;;;;5054065;28;20207;-72
2024/01/25 04:31:03;;;;;;;5.63;2.40;;;15.10;56.30;;;;;;5054325;28;20198;-74
2024/01/25 04:33:29;;;;;;;4.60;2.40;;;15.10;56.20;;;;;;5053136;28;20203;-72
2024/01/25 04:35:55;;;;;;;4.13;2.45;;;15.10;56.20;;;;;;5054109;28;20171;-73
2024/01/25 04:38:21;;;;;;;5.13;2.60;;;15.10;56.20;;;;;;5053767;28;20265;-74
2024/01/25 04:40:46;;;;;;;7.78;2.95;;;15.10;56.20;;;;;;5053465;28;20305;-75
2024/01/25 04:43:12;;;;;;;7.40;2.58;;;15.10;56.20;;;;;;5053933;28;20215;-73
2024/01/25 04:45:38;;;;;;;5.35;2.63;;;15.10;56.20;;;;;;5052862;28;20228;-73
2024/01/25 04:48:04;;;;;;;3.60;2.20;;;15.00;56.20;;;;;;5053930;28;20173;-75
2024/01/25 04:50:29;;;;;;;4.63;2.50;;;15.10;56.20;;;;;;5053513;28;20217;-74
2024/01/25 04:52:55;;;;;;;4.88;2.42;;;15.10;56.80;;;;;;5052977;28;20845;-74
2024/01/25 04:55:21;;;;;;;5.47;2.55;;;15.00;56.10;;;;;;5053690;28;20724;-74
2024/01/25 04:57:47;;;;;;;7.10;2.90;;;15.00;56.10;;;;;;5053881;28;20172;-73
2024/01/25 05:00:13;;;;;;;5.40;2.47;;;15.00;56.10;;;;;;5052303;28;20190;-73
2024/01/25 05:02:39;;;;;;;8.00;3.13;;;15.00;56.10;;;;;;5053093;28;20226;-74
2024/01/25 05:05:04;;;;;;;4.68;1.98;;;15.00;56.10;;;;;;5053526;28;20540;-74
2024/01/25 05:07:30;;;;;;;8.15;2.78;;;15.00;56.10;;;;;;5052518;28;20831;-73
2024/01/25 05:09:55;;;;;;;6.57;2.42;;;15.10;56.10;;;;;;5053666;28;20163;-74
2024/01/25 05:12:21;;;;;;;4.22;2.30;;;15.00;56.10;;;;;;5053313;28;20171;-74
2024/01/25 05:14:47;;;;;;;6.43;2.67;;;15.00;56.10;;;;;;5052870;28;20584;-74
2024/01/25 05:17:12;;;;;;;4.05;2.53;;;15.00;56.10;;;;;;5053457;28;20585;-75
2024/01/25 05:19:38;;;;;;;6.25;2.83;;;15.00;56.10;;;;;;5053082;28;20171;-73
2024/01/25 05:22:06;;;;;;;5.07;2.40;;;14.90;56.10;;;;;;5052426;28;20207;-74
2024/01/25 05:24:32;;;;;;;4.30;2.53;;;14.90;56.10;;;;;;5053083;28;20187;-73
2024/01/25 05:26:58;;;;;;;5.03;2.75;;;15.00;56.10;;;;;;5053133;28;20635;-73
2024/01/25 05:29:23;;;;;;;5.68;2.05;;;15.00;56.10;;;;;;5052127;28;20214;-72
2024/01/25 05:31:49;;;;;;;7.35;2.55;;;15.00;56.10;;;;;;5053148;28;20182;-71
2024/01/25 05:34:15;;;;;;;6.93;2.72;;;15.00;56.10;;;;;;5053107;28;20186;-72
2024/01/25 05:36:41;;;;;;;4.80;2.15;;;14.90;56.10;;;;;;5052146;28;20219;-73
2024/01/25 05:39:07;;;;;;;6.15;2.75;;;14.90;56.00;;;;;;5053224;28;20171;-73
2024/01/25 05:41:33;;;;;;;7.03;2.90;;;14.90;56.10;;;;;;5052783;28;20214;-74
2024/01/25 05:43:59;;;;;;;5.00;2.58;;;14.90;56.10;;;;;;5052253;28;20374;-74
2024/01/25 05:46:25;;;;;;;4.55;2.30;;;14.90;56.10;;;;;;5052532;28;20262;-73
2024/01/25 05:48:50;;;;;;;6.43;2.80;;;14.90;56.10;;;;;;5052822;28;20551;-74
2024/01/25 05:51:16;;;;;;;4.45;2.17;;;14.90;56.00;;;;;;5051897;28;20187;-74
2024/01/25 05:53:41;;;;;;;4.60;2.30;;;15.00;56.00;;;;;;5052606;28;20851;-73
2024/01/25 05:56:07;;;;;;;6.55;2.50;;;15.00;55.90;;;;;;5052050;28;20179;-72
2024/01/25 05:58:33;;;;;;;3.60;2.17;;;15.10;55.90;;;;;;5052370;28;20175;-73
2024/01/25 06:01:02;;;;;;;4.65;1.90;;;15.20;55.90;;;;;;5052383;28;20325;-73
2024/01/25 06:03:28;;;;;;;4.88;2.60;;;15.20;55.80;;;;;;5051364;28;20178;-72
2024/01/25 06:05:53;;;;;;;4.68;2.17;;;15.40;55.80;;;;;;5052343;28;20259;-73
2024/01/25 06:08:19;;;;;;;4.90;2.33;;;15.40;55.70;;;;;;5052168;28;20183;-73
2024/01/25 06:10:44;;;;;;;5.53;2.47;;;15.50;55.70;;;;;;5051790;28;20202;-74
2024/01/25 06:13:10;;;;;;;4.22;1.95;;;15.50;55.60;;;;;;5052244;28;20183;-74
2024/01/25 06:15:35;;;;;;;3.60;1.95;;;15.60;55.60;;;;;;5051939;28;20768;-72
2024/01/25 06:18:01;;;;;;;4.63;2.30;;;15.70;55.40;;;;;;5051590;28;20179;-74
2024/01/25 06:20:26;;;;;;;4.78;2.47;;;15.80;55.30;;;;;;5051598;28;20262;-73
2024/01/25 06:22:52;;;;;;;5.45;2.40;;;15.90;55.20;;;;;;5052363;28;20207;-72
2024/01/25 06:25:17;;;;;;;5.03;2.22;;;15.90;55.00;;;;;;5051281;28;20662;-72
2024/01/25 06:27:43;;;;;;;5.07;2.47;;;16.00;54.90;;;;;;5051999;28;20220;-72
2024/01/25 06:30:09;;;;;;;4.95;2.15;;;16.10;55.00;;;;;;5052177;28;20167;-73
2024/01/25 06:32:35;;;;;;;4.40;2.17;;;16.10;54.80;;;;;;5051065;28;20179;-73
2024/01/25 06:35:00;;;;;;;4.55;2.40;;;16.20;54.70;;;;;;5052026;28;20530;-73
2024/01/25 06:37:26;;;;;;;5.03;2.13;;;16.20;54.70;;;;;;5051892;28;20549;-74
2024/01/25 06:39:51;;;;;;;4.25;2.03;;;16.20;54.60;;;;;;5051385;28;20175;-73
2024/01/25 06:42:17;;;;;;;3.33;1.88;;;16.20;54.60;;;;;;5051663;28;20579;-75
2024/01/25 06:44:43;;;;;;;5.05;2.50;;;16.20;54.60;;;;;;5052074;28;20381;-74
2024/01/25 06:47:08;;;;;;;3.53;2.13;;;16.30;54.60;;;;;;5051257;28;20250;-75
2024/01/25 06:49:34;;;;;;;3.97;2.40;;;16.30;54.60;;;;;;5051597;28;20178;-73
2024/01/25 06:51:59;;;;;;;4.53;2.03;;;16.40;54.60;;;;;;5052105;28;20658;-74
2024/01/25 06:54:25;;;;;;;3.88;1.80;;;16.50;54.50;;;;;;5050691;28;20701;-75
2024/01/25 06:56:51;;;;;;;3.53;2.20;;;16.70;54.30;;;;;;5051891;28;20221;-73
2024/01/25 06:59:17;;;;;;;3.60;1.98;;;16.80;54.10;;;;;;5050911;28;20212;-73
2024/01/25 07:01:42;;;;;;;4.35;2.20;;;17.00;53.70;;;;;;5051768;28;20238;-74
2024/01/25 07:04:08;;;;;;;3.88;2.28;;;17.10;53.50;;;;;;5051745;28;20258;-73
2024/01/25 07:06:33;;;;;;;4.72;1.80;;;17.30;53.40;;;;;;5050971;28;21006;-74
2024/01/25 07:08:59;;;;;;;5.35;2.10;;;17.30;53.40;;;;;;5051893;28;20686;-74
2024/01/25 07:11:25;;;;;;;4.45;2.50;;;17.40;53.20;;;;;;5051515;28;20572;-73
2024/01/25 07:13:51;;;;;;;3.22;2.08;;;17.40;53.00;;;;;;5051038;28;20644;-73
2024/01/25 07:16:16;;;;;;;4.55;2.30;;;17.40;53.00;;;;;;5051498;28;20179;-73
2024/01/25 07:18:42;;;;;;;3.28;1.85;;;17.40;53.10;;;;;;5051533;28;20217;-73
2024/01/25 07:21:07;;;;;;;4.82;2.25;;;17.40;53.00;;;;;;5051035;28;20222;-72
2024/01/25 07:23:33;;;;;;;3.92;1.95;;;17.40;53.20;;;;;;5051815;28;20225;-73
2024/01/25 07:25:59;;;;;;;3.25;1.90;;;17.30;53.10;;;;;;5055393;28;20183;-72
2024/01/25 07:28:25;;;;;;;4.20;2.40;;;17.30;53.20;;;;;;5054253;28;20172;-72
2024/01/25 07:30:50;;;;;;;6.90;2.67;;;17.30;53.20;;;;;;5055203;28;20225;-73
2024/01/25 07:33:16;;;;;;;3.60;2.08;;;17.30;53.40;;;;;;5054986;28;20179;-75
2024/01/25 07:35:48;;;;;;;3.92;2.20;;;17.20;53.40;;;;;;5054736;28;20167;-72
2024/01/25 07:38:16;;;;;;;3.75;2.00;;;17.20;53.50;;;;;;5055375;28;20262;-73
2024/01/25 07:40:42;;;;;;;3.25;1.90;;;17.10;53.50;;;;;;5055036;28;20594;-73
2024/01/25 07:43:07;;;;;;;3.95;2.10;;;17.00;53.60;;;;;;5054388;28;20206;-74
2024/01/25 07:45:33;;;;;;;3.10;1.90;;;17.00;53.70;;;;;;5054722;28;20257;-74
2024/01/25 07:47:59;;;;;;;5.35;2.65;;;17.00;53.70;;;;;;5055026;28;20646;-73
2024/01/25 07:50:24;;;;;;;3.60;1.95;;;17.10;53.80;;;;;;5054278;28;20177;-74
2024/01/25 07:52:50;;;;;;;4.50;1.90;;;17.10;54.40;;;;;;5055150;28;20195;-73
2024/01/25 07:55:18;;;;;;;4.30;2.05;;;17.00;53.80;;;;;;5054690;28;20715;-75
2024/01/25 07:57:44;;;;;;;4.85;1.83;;;17.00;54.00;;;;;;5054248;28;20190;-73
2024/01/25 08:00:10;;;;;;;3.70;2.17;;;17.10;53.80;;;;;;5054891;28;20634;-73
2024/01/25 08:02:36;;;;;;;4.53;2.10;;;17.10;53.80;;;;;;5053691;28;20238;-75
2024/01/25 08:05:01;;;;;;;4.00;2.13;;;17.10;53.80;;;;;;5054592;28;20650;-73
2024/01/25 08:07:28;;;;;;;4.22;2.42;;;17.10;53.80;;;;;;5054448;28;20186;-74
2024/01/25 08:09:57;;;;;;;5.13;2.22;;;17.10;53.80;;;;;;5053957;28;20179;-73
2024/01/25 08:12:26;;;;;;;3.83;1.52;;;17.10;53.80;;;;;;5054362;28;20183;-71
2024/01/25 08:14:51;;;;;;;5.25;2.20;;;17.00;53.70;;;;;;5054373;28;20182;-71
2024/01/25 08:17:17;;;;;;;4.47;2.00;;;17.10;53.80;;;;;;5053730;28;20645;-71
2024/01/25 08:19:43;;;;;;;5.35;2.53;;;17.10;53.80;;;;;;5054482;28;20690;-70
2024/01/25 08:22:09;;;;;;;6.75;2.70;;;17.10;53.80;;;;;;5054397;28;20238;-72
2024/01/25 08:24:35;;;;;;;3.75;2.30;;;17.10;53.90;;;;;;5053294;28;20677;-71
2024/01/25 08:27:01;;;;;;;4.35;1.70;;;17.10;54.00;;;;;;5054221;28;20190;-71
2024/01/25 08:29:26;;;;;;;4.80;2.05;;;17.10;53.90;;;;;;5053903;28;20179;-72
2024/01/25 08:31:52;;;;;;;5.75;2.30;;;17.10;54.00;;;;;;5053757;28;20182;-69
2024/01/25 08:34:17;;;;;;;6.50;2.47;;;17.10;54.10;;;;;;5054062;28;20182;-70
2024/01/25 08:36:43;;;;;;;4.63;2.30;;;17.10;54.00;;;;;;5054258;28;20175;-71
2024/01/25 08:39:08;;;;;;;6.45;2.25;;;17.00;54.10;;;;;;5053505;28;20175;-71
2024/01/25 08:41:34;;;;;;;6.28;2.50;;;17.00;54.20;;;;;;5053677;28;20281;-72
2024/01/25 08:44:00;;;;;;;3.85;2.28;;;16.90;54.20;;;;;;5053937;28;20179;-69
2024/01/25 08:46:26;;;;;;;4.43;2.33;;;16.80;54.20;;;;;;5053126;28;20187;-69
2024/01/25 08:48:51;;;;;;;5.38;2.33;;;16.80;54.30;;;;;;5054062;28;20665;-68
2024/01/25 08:51:17;;;;;;;5.20;2.58;;;16.80;54.60;;;;;;5053825;28;20175;-70
2024/01/25 08:53:43;;;;;;;6.45;2.85;;;16.80;54.50;;;;;;5053041;28;20229;-68
2024/01/25 08:56:08;;;;;;;6.43;2.40;;;16.80;54.60;;;;;;5053888;28;20179;-70
2024/01/25 08:58:34;;;;;;;4.63;2.72;;;16.80;54.60;;;;;;5053465;28;20533;-70
2024/01/25 09:00:59;;;;;;;6.88;3.03;;;16.80;54.60;;;;;;5052861;28;20210;-71
2024/01/25 09:03:26;;;;;;;5.40;2.30;;;16.80;54.80;;;;;;5053501;28;20175;-70
2024/01/25 09:05:51;;;;;;;4.85;2.33;;;16.80;54.70;;;;;;5053007;28;20233;-71
2024/01/25 09:08:17;;;;;;;4.10;2.00;;;16.80;54.60;;;;;;5053101;28;20175;-71
2024/01/25 09:10:42;;;;;;;7.05;2.78;;;16.80;54.70;;;;;;5053480;28;20175;-72
2024/01/25 09:13:08;;;;;;;7.57;2.50;;;16.70;54.70;;;;;;5052655;28;20740;-72
2024/01/25 09:15:34;;;;;;;6.45;3.05;;;16.70;54.70;;;;;;5053274;28;20262;-69
2024/01/25 09:17:59;;;;;;;4.25;2.25;;;16.60;54.80;;;;;;5053612;28;20554;-70
2024/01/25 09:20:25;;;;;;;6.00;3.17;;;16.60;54.80;;;;;;5052254;28;20646;-72
2024/01/25 09:22:51;;;;;;;8.45;3.15;;;16.60;55.50;;;;;;5053311;28;20218;-72
2024/01/25 09:25:16;;;;;;;6.47;2.65;;;16.70;54.90;;;;;;5052925;28;20179;-72
2024/01/25 09:27:42;;;;;;;8.70;2.70;;;16.70;54.90;;;;;;5052466;28;20520;-70
2024/01/25 09:30:08;;;;;;;7.03;2.72;;;16.70;54.80;;;;;;5053090;28;20191;-71
2024/01/25 09:32:34;;;;;;;7.22;2.85;;;16.60;54.80;;;;;;5052956;28;20185;-70
2024/01/25 09:34:59;;;;;;;6.88;2.85;;;16.60;54.80;;;;;;5052470;28;20179;-71
2024/01/25 09:37:25;;;;;;;5.43;2.80;;;16.60;54.90;;;;;;5052832;28;20210;-71
2024/01/25 09:39:54;;;;;;;6.75;2.85;;;16.60;55.00;;;;;;5052975;28;20174;-71
2024/01/25 09:42:19;;;;;;;5.05;2.42;;;16.50;55.60;;;;;;5051764;28;20618;-71
2024/01/25 09:44:45;;;;;;;7.38;2.70;;;16.50;55.00;;;;;;5052825;28;20660;-71
2024/01/25 09:47:10;;;;;;;5.13;2.78;;;16.50;55.00;;;;;;5052484;28;20240;-70
2024/01/25 09:49:36;;;;;;;5.97;3.25;;;16.50;55.00;;;;;;5051928;28;20228;-69
2024/01/25 09:52:03;;;;;;;6.20;2.70;;;16.50;55.10;;;;;;5052661;28;20213;-68
2024/01/25 09:54:33;;;;;;;8.00;3.35;;;16.60;55.00;;;;;;5052242;28;20321;-70
2024/01/25 09:56:59;;;;;;;6.18;3.45;;;16.50;54.90;;;;;;5051838;28;20183;-71
2024/01/25 09:59:24;;;;;;;7.85;3.15;;;16.60;55.00;;;;;;5034697;28;20175;-70
2024/01/25 10:01:50;;;;;;;7.75;3.17;;;16.50;55.00;;;;;;5052605;28;20227;-70
2024/01/25 10:04:19;;;;;;;7.53;2.95;;;16.50;55.10;;;;;;5050606;28;20179;-70
2024/01/25 10:06:44;;;;;;;5.72;3.20;;;16.40;55.20;;;;;;5052774;28;20178;-72
2024/01/25 10:09:10;;;;;;;4.97;3.20;;;16.40;55.20;;;;;;5051764;28;20539;-73
2024/01/25 10:11:37;;;;;;;5.85;3.00;;;16.40;55.30;;;;;;5051993;28;20191;-71
2024/01/25 10:14:03;;;;;;;5.78;2.78;;;16.40;55.30;;;;;;5051367;28;20171;-72
2024/01/25 10:16:29;;;;;;;8.30;3.28;;;16.30;55.30;;;;;;5051484;28;20182;-72
2024/01/25 10:18:54;;;;;;;6.53;3.42;;;16.30;55.40;;;;;;5034516;28;20646;-72
2024/01/25 10:21:21;;;;;;;5.05;3.08;;;16.30;55.40;;;;;;5051826;28;20210;-72
2024/01/25 10:23:47;;;;;;;8.35;3.15;;;16.30;55.40;;;;;;5051478;28;20552;-70
2024/01/25 10:26:12;;;;;;;6.45;3.30;;;16.30;55.50;;;;;;5052137;28;20182;-71
2024/01/25 10:28:38;;;;;;;8.68;3.10;;;16.30;55.50;;;;;;5052008;28;20171;-70
2024/01/25 10:31:04;;;;;;;9.60;3.25;;;16.30;55.60;;;;;;5051606;28;20170;-70
2024/01/25 10:33:30;;;;;;;7.03;3.03;;;16.30;55.60;;;;;;5051877;28;20171;-69
2024/01/25 10:36:01;;;;;;;6.93;3.20;;;16.20;55.50;;;;;;5052143;28;20649;-69
2024/01/25 10:38:28;;;;;;;7.30;3.42;;;16.20;55.50;;;;;;5049812;28;20652;-71
2024/01/25 10:40:54;;;;;;;6.43;3.20;;;16.20;55.60;;;;;;5034370;28;20210;-72
2024/01/25 10:43:19;;;;;;;6.22;2.80;;;16.20;55.60;;;;;;5034053;28;20179;-71
2024/01/25 10:45:47;;;;;;;6.65;2.83;;;16.20;55.60;;;;;;5050297;28;20175;-69
2024/01/25 10:48:13;;;;;;;4.68;2.80;;;16.20;55.60;;;;;;5051917;28;20659;-68
2024/01/25 10:50:39;;;;;;;7.43;3.38;;;16.20;55.60;;;;;;5051598;28;20212;-69
2024/01/25 10:53:05;;;;;;;8.30;3.45;;;16.20;55.60;;;;;;5051060;28;20266;-70
2024/01/25 10:55:31;;;;;;;9.05;3.28;;;16.20;55.60;;;;;;5050579;28;20167;-69
2024/01/25 10:57:57;;;;;;;7.25;3.20;;;16.20;55.70;;;;;;5050817;28;20186;-69
2024/01/25 11:00:22;;;;;;;8.05;3.08;;;16.30;55.70;;;;;;5054430;28;20189;-70
2024/01/25 11:02:49;;;;;;;4.80;2.53;;;16.20;55.60;;;;;;5055883;28;20575;-70
2024/01/25 11:05:16;;;;;;;6.13;3.20;;;16.20;55.60;;;;;;5054633;28;20172;-71
2024/01/25 11:07:50;;;;;;;7.65;3.40;;;16.20;55.70;;;;;;5053889;28;20186;-71
2024/01/25 11:10:25;;;;;;;8.85;3.65;;;16.20;55.70;;;;;;5055795;28;20361;-72
2024/01/25 11:13:03;;;;;;;5.95;3.15;;;16.20;55.80;;;;;;5055084;28;20170;-70
2024/01/25 11:15:33;;;;;;;7.00;2.97;;;16.20;55.70;;;;;;5055259;28;20561;-70
2024/01/25 11:18:03;;;;;;;6.28;2.85;;;16.20;55.80;;;;;;5055617;28;20171;-72
2024/01/25 11:20:29;;;;;;;7.18;3.40;;;16.20;55.80;;;;;;5053316;28;20503;-71
2024/01/25 11:22:59;;;;;;;6.45;2.67;;;16.20;55.70;;;;;;5055380;28;20214;-72
2024/01/25 11:25:36;;;;;;;6.97;3.17;;;16.30;55.80;;;;;;5055252;28;20171;-72
2024/01/25 11:28:03;;;;;;;7.22;2.90;;;16.20;55.80;;;;;;5054871;28;20175;-70
2024/01/25 11:30:29;;;;;;;6.93;3.50;;;16.20;55.70;;;;;;5055043;28;20661;-69
2024/01/25 11:32:55;;;;;;;6.47;2.63;;;16.20;55.80;;;;;;5055436;28;20213;-69
2024/01/25 11:35:21;;;;;;;6.63;3.10;;;16.20;55.80;;;;;;5054515;28;20182;-71
2024/01/25 11:37:47;;;;;;;7.00;2.88;;;16.20;55.90;;;;;;5055514;28;20171;-72
2024/01/25 11:40:14;;;;;;;7.72;3.17;;;16.20;55.80;;;;;;5055381;28;20182;-71
2024/01/25 11:42:40;;;;;;;7.55;2.92;;;16.20;55.90;;;;;;5054063;28;20226;-71
2024/01/25 11:45:07;;;;;;;5.13;2.50;;;16.10;55.80;;;;;;5055184;28;20216;-71
2024/01/25 11:47:36;;;;;;;5.80;2.88;;;16.20;55.90;;;;;;5053690;28;20261;-69
2024/01/25 11:50:02;;;;;;;7.47;2.90;;;16.20;55.90;;;;;;5055140;28;20163;-70
2024/01/25 11:52:27;;;;;;;7.22;2.95;;;16.20;55.90;;;;;;5054747;28;20186;-69
2024/01/25 11:54:53;;;;;;;8.30;3.65;;;16.20;55.90;;;;;;5053020;28;20583;-71
2024/01/25 11:57:19;;;;;;;6.32;3.13;;;16.20;55.90;;;;;;5053397;28;20213;-71
2024/01/25 11:59:47;;;;;;;9.35;4.00;;;16.20;55.80;;;;;;5053539;28;20175;-72
2024/01/25 12:02:13;;;;;;;8.30;3.15;;;16.20;55.90;;;;;;5052972;28;20207;-72
2024/01/25 12:04:39;;;;;;;6.80;3.08;;;16.20;55.90;;;;;;5035809;28;20172;-71
2024/01/25 12:07:05;;;;;;;5.35;2.85;;;16.20;55.90;;;;;;5053544;28;20176;-72
2024/01/25 12:09:30;;;;;;;4.85;2.55;;;16.20;55.90;;;;;;5052127;28;20535;-71
2024/01/25 12:11:56;;;;;;;7.68;3.25;;;16.20;56.00;;;;;;5053390;28;20171;-71
2024/01/25 12:14:24;;;;;;;6.22;2.88;;;16.20;56.00;;;;;;5052941;28;20206;-73
2024/01/25 12:16:49;;;;;;;5.43;2.53;;;16.20;56.00;;;;;;5052883;28;20175;-70
2024/01/25 12:19:15;;;;;;;5.40;2.95;;;16.20;56.00;;;;;;5053575;28;20171;-72
2024/01/25 12:21:44;;;;;;;5.32;3.10;;;16.20;56.00;;;;;;5053277;28;20607;-70
2024/01/25 12:24:10;;;;;;;8.18;2.97;;;16.20;56.10;;;;;;5052715;28;20175;-72
2024/01/25 12:26:35;;;;;;;6.88;3.35;;;16.10;56.00;;;;;;5051833;28;20924;-72
2024/01/25 12:29:01;;;;;;;6.30;3.03;;;16.10;56.10;;;;;;5053196;28;20220;-70
2024/01/25 12:31:26;;;;;;;5.03;2.78;;;16.20;56.10;;;;;;5052005;28;20703;-70
2024/01/25 12:33:52;;;;;;;6.70;2.83;;;16.10;56.10;;;;;;5053219;28;20250;-70
2024/01/25 12:36:17;;;;;;;8.30;3.20;;;16.10;56.10;;;;;;5052735;28;20633;-72
2024/01/25 12:38:43;;;;;;;6.47;2.97;;;16.10;56.10;;;;;;5052218;28;20179;-72
2024/01/25 12:41:08;;;;;;;6.97;2.88;;;16.20;56.10;;;;;;5053010;28;20199;-72